sensor_id;sensor_type;location;lat;lon;timestamp;temperature;humidity
15625;DHT22;7912;51.376;6.126;2024-03-08T00:01:22;7.40;99.90
15625;DHT22;7912;51.376;6.126;2024-03-08T00:03:50;7.30;99.90
15625;DHT22;7912;51.376;6.126;2024-03-08T00:06:19;7.30;99.90
15625;DHT22;7912;51.376;6.126;2024-03-08T00:08:46;7.30;99.90
15625;DHT22;7912;51.376;6.126;2024-03-08T00:11:13;7.30;99.90
15625;DHT22;7912;51.376;6.126;2024-03-08T00:13:41;7.30;99.90
15625;DHT22;7912;51.376;6.126;2024-03-08T00:16:08;7.30;99.90
15625;DHT22;7912;51.376;6.126;2024-03-08T00:18:36;7.20;99.90
15625;DHT22;7912;51.376;6.126;2024-03-08T00:21:04;7.20;99.90
15625;DHT22;7912;51.376;6.126;2024-03-08T00:23:31;7.20;99.90
15625;DHT22;7912;51.376;6.126;2024-03-08T00:26:00;7.20;99.90
15625;DHT22;7912;51.376;6.126;2024-03-08T00:28:28;7.20;99.90
15625;DHT22;7912;51.376;6.126;2024-03-08T00:30:55;7.10;99.90
15625;DHT22;7912;51.376;6.126;2024-03-08T00:33:22;7.10;99.90
15625;DHT22;7912;51.376;6.126;2024-03-08T00:35:49;7.10;99.90
15625;DHT22;7912;51.376;6.126;2024-03-08T00:38:17;7.10;99.90
15625;DHT22;7912;51.376;6.126;2024-03-08T00:40:45;7.10;99.90
15625;DHT22;7912;51.376;6.126;2024-03-08T00:43:13;7.00;99.90
15625;DHT22;7912;51.376;6.126;2024-03-08T00:45:40;7.00;99.90
15625;DHT22;7912;51.376;6.126;2024-03-08T00:48:09;7.00;99.90
15625;DHT22;7912;51.376;6.126;2024-03-08T00:50:38;7.00;99.90
15625;DHT22;7912;51.376;6.126;2024-03-08T00:53:05;6.90;99.90
15625;DHT22;7912;51.376;6.126;2024-03-08T00:55:35;6.90;99.90
15625;DHT22;7912;51.376;6.126;2024-03-08T00:58:05;6.90;99.90
15625;DHT22;7912;51.376;6.126;2024-03-08T01:00:32;6.90;99.90
15625;DHT22;7912;51.376;6.126;2024-03-08T01:03:00;6.80;99.90
15625;DHT22;7912;51.376;6.126;2024-03-08T01:05:27;6.80;99.90
15625;DHT22;7912;51.376;6.126;2024-03-08T01:07:54;6.80;99.90
15625;DHT22;7912;51.376;6.126;2024-03-08T01:10:22;6.70;99.90
15625;DHT22;7912;51.376;6.126;2024-03-08T01:12:49;6.70;99.90
15625;DHT22;7912;51.376;6.126;2024-03-08T01:15:16;6.70;99.90
15625;DHT22;7912;51.376;6.126;2024-03-08T01:17:44;6.60;99.90
15625;DHT22;7912;51.376;6.126;2024-03-08T01:20:11;6.60;99.90
15625;DHT22;7912;51.376;6.126;2024-03-08T01:22:40;6.60;99.90
15625;DHT22;7912;51.376;6.126;2024-03-08T01:25:08;6.60;99.90
15625;DHT22;7912;51.376;6.126;2024-03-08T01:27:35;6.60;99.90
15625;DHT22;7912;51.376;6.126;2024-03-08T01:30:04;6.60;99.90
15625;DHT22;7912;51.376;6.126;2024-03-08T01:32:32;6.50;99.90
15625;DHT22;7912;51.376;6.126;2024-03-08T01:34:59;6.50;99.90
15625;DHT22;7912;51.376;6.126;2024-03-08T01:37:26;6.50;99.90
15625;DHT22;7912;51.376;6.126;2024-03-08T01:39:54;6.50;99.90
15625;DHT22;7912;51.376;6.126;2024-03-08T01:42:21;6.40;99.90
15625;DHT22;7912;51.376;6.126;2024-03-08T01:44:49;6.40;99.90
15625;DHT22;7912;51.376;6.126;2024-03-08T01:47:16;6.40;99.90
15625;DHT22;7912;51.376;6.126;2024-03-08T01:49:44;6.40;99.90
15625;DHT22;7912;51.376;6.126;2024-03-08T01:52:12;6.30;99.90
15625;DHT22;7912;51.376;6.126;2024-03-08T01:54:39;6.30;99.90
15625;DHT22;7912;51.376;6.126;2024-03-08T01:57:07;6.40;99.90
15625;DHT22;7912;51.376;6.126;2024-03-08T01:59:35;6.30;99.90
15625;DHT22;7912;51.376;6.126;2024-03-08T02:02:03;6.30;99.90
15625;DHT22;7912;51.376;6.126;2024-03-08T02:04:32;6.30;99.90
15625;DHT22;7912;51.376;6.126;2024-03-08T02:07:00;6.30;99.90
15625;DHT22;7912;51.376;6.126;2024-03-08T02:09:27;6.20;99.90
15625;DHT22;7912;51.376;6.126;2024-03-08T02:11:55;6.20;99.90
15625;DHT22;7912;51.376;6.126;2024-03-08T02:14:24;6.20;99.90
15625;DHT22;7912;51.376;6.126;2024-03-08T02:16:51;6.20;99.90
15625;DHT22;7912;51.376;6.126;2024-03-08T02:19:18;6.20;99.90
15625;DHT22;7912;51.376;6.126;2024-03-08T02:21:46;6.20;99.90
15625;DHT22;7912;51.376;6.126;2024-03-08T02:24:14;6.20;99.90
15625;DHT22;7912;51.376;6.126;2024-03-08T02:26:42;6.10;99.90
15625;DHT22;7912;51.376;6.126;2024-03-08T02:29:09;6.10;99.90
15625;DHT22;7912;51.376;6.126;2024-03-08T02:31:37;6.10;99.90
15625;DHT22;7912;51.376;6.126;2024-03-08T02:34:06;6.10;99.90
15625;DHT22;7912;51.376;6.126;2024-03-08T02:36:33;6.10;99.90
15625;DHT22;7912;51.376;6.126;2024-03-08T02:39:02;6.10;99.90
15625;DHT22;7912;51.376;6.126;2024-03-08T02:41:31;6.10;99.90
15625;DHT22;7912;51.376;6.126;2024-03-08T02:43:59;6.00;99.90
15625;DHT22;7912;51.376;6.126;2024-03-08T02:46:26;6.00;99.90
15625;DHT22;7912;51.376;6.126;2024-03-08T02:48:54;6.00;99.90
15625;DHT22;7912;51.376;6.126;2024-03-08T02:51:21;6.00;99.90
15625;DHT22;7912;51.376;6.126;2024-03-08T02:53:48;6.00;99.90
15625;DHT22;7912;51.376;6.126;2024-03-08T02:56:18;6.00;99.90
15625;DHT22;7912;51.376;6.126;2024-03-08T02:58:45;5.90;99.90
15625;DHT22;7912;51.376;6.126;2024-03-08T03:01:15;5.90;99.90
15625;DHT22;7912;51.376;6.126;2024-03-08T03:03:42;5.80;99.90
15625;DHT22;7912;51.376;6.126;2024-03-08T03:06:10;5.80;99.90
15625;DHT22;7912;51.376;6.126;2024-03-08T03:08:38;5.80;99.90
15625;DHT22;7912;51.376;6.126;2024-03-08T03:11:06;5.80;99.90
15625;DHT22;7912;51.376;6.126;2024-03-08T03:13:34;5.70;99.90
15625;DHT22;7912;51.376;6.126;2024-03-08T03:16:01;5.70;99.90
15625;DHT22;7912;51.376;6.126;2024-03-08T03:18:30;5.70;99.90
15625;DHT22;7912;51.376;6.126;2024-03-08T03:21:00;5.70;99.90
15625;DHT22;7912;51.376;6.126;2024-03-08T03:23:34;5.60;99.90
15625;DHT22;7912;51.376;6.126;2024-03-08T03:26:01;5.60;99.90
15625;DHT22;7912;51.376;6.126;2024-03-08T03:28:29;5.60;99.90
15625;DHT22;7912;51.376;6.126;2024-03-08T03:30:56;5.60;99.90
15625;DHT22;7912;51.376;6.126;2024-03-08T03:33:25;5.50;99.90
15625;DHT22;7912;51.376;6.126;2024-03-08T03:35:53;5.50;99.90
15625;DHT22;7912;51.376;6.126;2024-03-08T03:38:24;5.50;99.90
15625;DHT22;7912;51.376;6.126;2024-03-08T03:40:52;5.50;99.90
15625;DHT22;7912;51.376;6.126;2024-03-08T03:43:24;5.50;99.90
15625;DHT22;7912;51.376;6.126;2024-03-08T03:45:52;5.40;99.90
15625;DHT22;7912;51.376;6.126;2024-03-08T03:48:21;5.40;99.90
15625;DHT22;7912;51.376;6.126;2024-03-08T03:50:48;5.40;99.90
15625;DHT22;7912;51.376;6.126;2024-03-08T03:53:17;5.40;99.90
15625;DHT22;7912;51.376;6.126;2024-03-08T03:55:47;5.40;99.90
15625;DHT22;7912;51.376;6.126;2024-03-08T03:58:14;5.40;99.90
15625;DHT22;7912;51.376;6.126;2024-03-08T04:00:42;5.30;99.90
15625;DHT22;7912;51.376;6.126;2024-03-08T04:03:09;5.30;99.90
15625;DHT22;7912;51.376;6.126;2024-03-08T04:05:37;5.30;99.90
15625;DHT22;7912;51.376;6.126;2024-03-08T04:08:04;5.30;99.90
15625;DHT22;7912;51.376;6.126;2024-03-08T04:10:33;5.30;99.90
15625;DHT22;7912;51.376;6.126;2024-03-08T04:13:00;5.30;99.90
15625;DHT22;7912;51.376;6.126;2024-03-08T04:15:27;5.20;99.90
15625;DHT22;7912;51.376;6.126;2024-03-08T04:17:54;5.20;99.90
15625;DHT22;7912;51.376;6.126;2024-03-08T04:20:22;5.20;99.90
15625;DHT22;7912;51.376;6.126;2024-03-08T04:22:49;5.20;99.90
15625;DHT22;7912;51.376;6.126;2024-03-08T04:25:17;5.20;99.90
15625;DHT22;7912;51.376;6.126;2024-03-08T04:27:44;5.10;99.90
15625;DHT22;7912;51.376;6.126;2024-03-08T04:30:12;5.10;99.90
15625;DHT22;7912;51.376;6.126;2024-03-08T04:32:40;5.10;99.90
15625;DHT22;7912;51.376;6.126;2024-03-08T04:35:08;5.10;99.90
15625;DHT22;7912;51.376;6.126;2024-03-08T04:37:36;5.10;99.90
15625;DHT22;7912;51.376;6.126;2024-03-08T04:40:03;5.00;99.90
15625;DHT22;7912;51.376;6.126;2024-03-08T04:42:31;5.00;99.90
15625;DHT22;7912;51.376;6.126;2024-03-08T04:45:00;5.00;99.90
15625;DHT22;7912;51.376;6.126;2024-03-08T04:47:27;5.00;99.90
15625;DHT22;7912;51.376;6.126;2024-03-08T04:49:55;5.00;99.90
15625;DHT22;7912;51.376;6.126;2024-03-08T04:52:23;5.00;99.90
15625;DHT22;7912;51.376;6.126;2024-03-08T04:54:50;4.90;99.90
15625;DHT22;7912;51.376;6.126;2024-03-08T04:57:18;4.90;99.90
15625;DHT22;7912;51.376;6.126;2024-03-08T04:59:46;4.90;99.90
15625;DHT22;7912;51.376;6.126;2024-03-08T05:02:13;4.90;99.90
15625;DHT22;7912;51.376;6.126;2024-03-08T05:04:41;4.90;99.90
15625;DHT22;7912;51.376;6.126;2024-03-08T05:07:09;4.80;99.90
15625;DHT22;7912;51.376;6.126;2024-03-08T05:09:37;4.80;99.90
15625;DHT22;7912;51.376;6.126;2024-03-08T05:12:05;4.80;99.90
15625;DHT22;7912;51.376;6.126;2024-03-08T05:14:33;4.80;99.90
15625;DHT22;7912;51.376;6.126;2024-03-08T05:17:02;4.80;99.90
15625;DHT22;7912;51.376;6.126;2024-03-08T05:19:29;4.80;99.90
15625;DHT22;7912;51.376;6.126;2024-03-08T05:22:01;4.80;99.90
15625;DHT22;7912;51.376;6.126;2024-03-08T05:24:28;4.70;99.90
15625;DHT22;7912;51.376;6.126;2024-03-08T05:26:57;4.70;99.90
15625;DHT22;7912;51.376;6.126;2024-03-08T05:29:26;4.70;99.90
15625;DHT22;7912;51.376;6.126;2024-03-08T05:31:54;4.70;99.90
15625;DHT22;7912;51.376;6.126;2024-03-08T05:34:22;4.70;99.90
15625;DHT22;7912;51.376;6.126;2024-03-08T05:36:50;4.70;99.90
15625;DHT22;7912;51.376;6.126;2024-03-08T05:39:18;4.70;99.90
15625;DHT22;7912;51.376;6.126;2024-03-08T05:41:47;4.70;99.90
15625;DHT22;7912;51.376;6.126;2024-03-08T05:44:15;4.70;99.90
15625;DHT22;7912;51.376;6.126;2024-03-08T05:46:45;4.70;99.90
15625;DHT22;7912;51.376;6.126;2024-03-08T05:49:15;4.60;99.90
15625;DHT22;7912;51.376;6.126;2024-03-08T05:51:43;4.60;99.90
15625;DHT22;7912;51.376;6.126;2024-03-08T05:54:11;4.60;99.90
15625;DHT22;7912;51.376;6.126;2024-03-08T05:56:43;4.60;99.90
15625;DHT22;7912;51.376;6.126;2024-03-08T05:59:13;4.60;99.90
15625;DHT22;7912;51.376;6.126;2024-03-08T06:01:40;4.60;99.90
15625;DHT22;7912;51.376;6.126;2024-03-08T06:04:09;4.60;99.90
15625;DHT22;7912;51.376;6.126;2024-03-08T06:06:41;4.60;99.90
15625;DHT22;7912;51.376;6.126;2024-03-08T06:09:08;4.60;99.90
15625;DHT22;7912;51.376;6.126;2024-03-08T06:11:39;4.60;99.90
15625;DHT22;7912;51.376;6.126;2024-03-08T06:14:07;4.50;99.90
15625;DHT22;7912;51.376;6.126;2024-03-08T06:16:34;4.50;99.90
15625;DHT22;7912;51.376;6.126;2024-03-08T06:19:03;4.50;99.90
15625;DHT22;7912;51.376;6.126;2024-03-08T06:21:30;4.50;99.90
15625;DHT22;7912;51.376;6.126;2024-03-08T06:23:59;4.50;99.90
15625;DHT22;7912;51.376;6.126;2024-03-08T06:26:27;4.60;99.90
15625;DHT22;7912;51.376;6.126;2024-03-08T06:28:58;4.50;99.90
15625;DHT22;7912;51.376;6.126;2024-03-08T06:31:28;4.50;99.90
15625;DHT22;7912;51.376;6.126;2024-03-08T06:33:55;4.50;99.90
15625;DHT22;7912;51.376;6.126;2024-03-08T06:36:23;4.60;99.90
15625;DHT22;7912;51.376;6.126;2024-03-08T06:38:51;4.50;99.90
15625;DHT22;7912;51.376;6.126;2024-03-08T06:41:19;4.60;99.90
15625;DHT22;7912;51.376;6.126;2024-03-08T06:43:47;4.50;99.90
15625;DHT22;7912;51.376;6.126;2024-03-08T06:46:16;4.60;99.90
15625;DHT22;7912;51.376;6.126;2024-03-08T06:48:43;4.60;99.90
15625;DHT22;7912;51.376;6.126;2024-03-08T06:51:15;4.60;99.90
15625;DHT22;7912;51.376;6.126;2024-03-08T06:53:42;4.60;99.90
15625;DHT22;7912;51.376;6.126;2024-03-08T06:56:10;4.60;99.90
15625;DHT22;7912;51.376;6.126;2024-03-08T06:58:37;4.60;99.90
15625;DHT22;7912;51.376;6.126;2024-03-08T07:01:04;4.60;99.90
15625;DHT22;7912;51.376;6.126;2024-03-08T07:03:35;4.60;99.90
15625;DHT22;7912;51.376;6.126;2024-03-08T07:06:02;4.70;99.90
15625;DHT22;7912;51.376;6.126;2024-03-08T07:08:34;4.70;99.90
15625;DHT22;7912;51.376;6.126;2024-03-08T07:11:02;4.80;99.90
15625;DHT22;7912;51.376;6.126;2024-03-08T07:13:30;4.80;99.90
15625;DHT22;7912;51.376;6.126;2024-03-08T07:15:57;4.90;99.90
15625;DHT22;7912;51.376;6.126;2024-03-08T07:18:28;4.90;99.90
15625;DHT22;7912;51.376;6.126;2024-03-08T07:20:57;5.00;99.90
15625;DHT22;7912;51.376;6.126;2024-03-08T07:23:25;5.00;99.90
15625;DHT22;7912;51.376;6.126;2024-03-08T07:26:22;5.00;99.90
15625;DHT22;7912;51.376;6.126;2024-03-08T07:28:49;5.10;99.90
15625;DHT22;7912;51.376;6.126;2024-03-08T07:31:17;5.10;99.90
15625;DHT22;7912;51.376;6.126;2024-03-08T07:33:45;5.20;99.90
15625;DHT22;7912;51.376;6.126;2024-03-08T07:36:12;5.20;99.90
15625;DHT22;7912;51.376;6.126;2024-03-08T07:38:41;5.20;99.90
15625;DHT22;7912;51.376;6.126;2024-03-08T07:41:09;5.30;99.90
15625;DHT22;7912;51.376;6.126;2024-03-08T07:43:39;5.30;99.90
15625;DHT22;7912;51.376;6.126;2024-03-08T07:46:06;5.40;99.90
15625;DHT22;7912;51.376;6.126;2024-03-08T07:48:35;5.40;99.90
15625;DHT22;7912;51.376;6.126;2024-03-08T07:51:04;5.50;99.90
15625;DHT22;7912;51.376;6.126;2024-03-08T07:53:31;5.50;99.90
15625;DHT22;7912;51.376;6.126;2024-03-08T07:55:59;5.60;99.90
15625;DHT22;7912;51.376;6.126;2024-03-08T07:58:27;5.60;99.90
15625;DHT22;7912;51.376;6.126;2024-03-08T08:00:55;5.70;99.90
15625;DHT22;7912;51.376;6.126;2024-03-08T08:03:22;5.80;99.90
15625;DHT22;7912;51.376;6.126;2024-03-08T08:05:50;5.90;99.90
15625;DHT22;7912;51.376;6.126;2024-03-08T08:08:17;5.90;99.90
15625;DHT22;7912;51.376;6.126;2024-03-08T08:10:44;6.00;99.90
15625;DHT22;7912;51.376;6.126;2024-03-08T08:13:12;6.10;99.90
15625;DHT22;7912;51.376;6.126;2024-03-08T08:15:39;6.10;99.90
15625;DHT22;7912;51.376;6.126;2024-03-08T08:18:07;6.20;99.90
15625;DHT22;7912;51.376;6.126;2024-03-08T08:20:36;6.30;99.90
15625;DHT22;7912;51.376;6.126;2024-03-08T08:23:04;6.40;99.90
15625;DHT22;7912;51.376;6.126;2024-03-08T08:25:31;6.50;99.90
15625;DHT22;7912;51.376;6.126;2024-03-08T08:28:04;6.60;99.90
15625;DHT22;7912;51.376;6.126;2024-03-08T08:30:31;6.70;99.90
15625;DHT22;7912;51.376;6.126;2024-03-08T08:33:01;6.80;99.90
15625;DHT22;7912;51.376;6.126;2024-03-08T08:35:29;6.90;99.90
15625;DHT22;7912;51.376;6.126;2024-03-08T08:37:56;7.00;99.90
15625;DHT22;7912;51.376;6.126;2024-03-08T08:40:26;7.00;99.90
15625;DHT22;7912;51.376;6.126;2024-03-08T08:42:56;7.10;99.90
15625;DHT22;7912;51.376;6.126;2024-03-08T08:45:26;7.20;99.90
15625;DHT22;7912;51.376;6.126;2024-03-08T08:47:54;7.30;99.90
15625;DHT22;7912;51.376;6.126;2024-03-08T08:50:22;7.30;99.90
15625;DHT22;7912;51.376;6.126;2024-03-08T08:52:51;7.40;99.90
15625;DHT22;7912;51.376;6.126;2024-03-08T08:55:18;7.50;99.90
15625;DHT22;7912;51.376;6.126;2024-03-08T08:57:48;7.50;99.90
15625;DHT22;7912;51.376;6.126;2024-03-08T09:00:16;7.60;99.90
15625;DHT22;7912;51.376;6.126;2024-03-08T09:02:45;7.70;99.90
15625;DHT22;7912;51.376;6.126;2024-03-08T09:05:14;7.80;99.90
15625;DHT22;7912;51.376;6.126;2024-03-08T09:07:44;8.00;99.90
15625;DHT22;7912;51.376;6.126;2024-03-08T09:10:12;8.10;99.90
15625;DHT22;7912;51.376;6.126;2024-03-08T09:12:44;8.20;99.90
15625;DHT22;7912;51.376;6.126;2024-03-08T09:15:11;8.30;99.90
15625;DHT22;7912;51.376;6.126;2024-03-08T09:17:40;8.40;99.90
15625;DHT22;7912;51.376;6.126;2024-03-08T09:20:09;8.50;99.90
15625;DHT22;7912;51.376;6.126;2024-03-08T09:22:37;8.60;99.90
15625;DHT22;7912;51.376;6.126;2024-03-08T09:25:07;8.80;99.90
15625;DHT22;7912;51.376;6.126;2024-03-08T09:27:36;8.90;99.90
15625;DHT22;7912;51.376;6.126;2024-03-08T09:30:06;9.00;99.90
15625;DHT22;7912;51.376;6.126;2024-03-08T09:32:34;9.10;99.90
15625;DHT22;7912;51.376;6.126;2024-03-08T09:35:04;9.20;99.90
15625;DHT22;7912;51.376;6.126;2024-03-08T09:37:35;9.30;99.90
15625;DHT22;7912;51.376;6.126;2024-03-08T09:40:03;9.40;99.90
15625;DHT22;7912;51.376;6.126;2024-03-08T09:42:37;9.50;99.90
15625;DHT22;7912;51.376;6.126;2024-03-08T09:45:11;9.60;99.90
15625;DHT22;7912;51.376;6.126;2024-03-08T09:47:42;9.70;99.90
15625;DHT22;7912;51.376;6.126;2024-03-08T09:50:12;9.80;99.90
15625;DHT22;7912;51.376;6.126;2024-03-08T09:52:40;9.90;99.90
15625;DHT22;7912;51.376;6.126;2024-03-08T09:55:09;10.00;99.90
15625;DHT22;7912;51.376;6.126;2024-03-08T09:57:39;10.00;99.40
15625;DHT22;7912;51.376;6.126;2024-03-08T10:00:07;10.10;99.80
15625;DHT22;7912;51.376;6.126;2024-03-08T10:03:01;10.30;99.90
15625;DHT22;7912;51.376;6.126;2024-03-08T10:05:31;10.50;99.90
15625;DHT22;7912;51.376;6.126;2024-03-08T10:08:00;10.70;99.90
15625;DHT22;7912;51.376;6.126;2024-03-08T10:10:27;11.00;99.80
15625;DHT22;7912;51.376;6.126;2024-03-08T10:12:56;11.30;99.70
15625;DHT22;7912;51.376;6.126;2024-03-08T10:15:23;11.70;98.60
15625;DHT22;7912;51.376;6.126;2024-03-08T10:17:51;12.10;97.80
15625;DHT22;7912;51.376;6.126;2024-03-08T10:20:20;12.40;96.50
15625;DHT22;7912;51.376;6.126;2024-03-08T10:22:58;12.70;96.30
15625;DHT22;7912;51.376;6.126;2024-03-08T10:25:37;13.00;94.50
15625;DHT22;7912;51.376;6.126;2024-03-08T10:28:06;13.30;95.50
15625;DHT22;7912;51.376;6.126;2024-03-08T10:30:33;13.50;94.30
15625;DHT22;7912;51.376;6.126;2024-03-08T10:33:00;13.70;93.90
15625;DHT22;7912;51.376;6.126;2024-03-08T10:35:29;14.00;93.20
15625;DHT22;7912;51.376;6.126;2024-03-08T10:37:57;14.10;91.40
15625;DHT22;7912;51.376;6.126;2024-03-08T10:40:30;14.30;91.10
15625;DHT22;7912;51.376;6.126;2024-03-08T10:43:00;14.40;89.00
15625;DHT22;7912;51.376;6.126;2024-03-08T10:45:40;14.50;90.20
15625;DHT22;7912;51.376;6.126;2024-03-08T10:48:26;14.60;88.40
15625;DHT22;7912;51.376;6.126;2024-03-08T10:51:04;14.70;88.40
15625;DHT22;7912;51.376;6.126;2024-03-08T10:53:34;14.80;89.40
15625;DHT22;7912;51.376;6.126;2024-03-08T10:56:04;14.90;85.50
15625;DHT22;7912;51.376;6.126;2024-03-08T10:58:32;15.10;86.50
15625;DHT22;7912;51.376;6.126;2024-03-08T11:01:02;15.10;85.80
15625;DHT22;7912;51.376;6.126;2024-03-08T11:08:56;15.30;84.10
15625;DHT22;7912;51.376;6.126;2024-03-08T11:11:25;15.40;85.30
15625;DHT22;7912;51.376;6.126;2024-03-08T11:13:59;15.50;85.60
15625;DHT22;7912;51.376;6.126;2024-03-08T11:21:58;16.00;78.40
15625;DHT22;7912;51.376;6.126;2024-03-08T11:24:26;16.10;79.10
15625;DHT22;7912;51.376;6.126;2024-03-08T11:26:57;16.20;79.20
15625;DHT22;7912;51.376;6.126;2024-03-08T11:32:14;16.30;77.50
15625;DHT22;7912;51.376;6.126;2024-03-08T11:34:48;16.40;75.10
15625;DHT22;7912;51.376;6.126;2024-03-08T11:37:20;16.40;74.90
15625;DHT22;7912;51.376;6.126;2024-03-08T11:39:49;16.50;75.70
15625;DHT22;7912;51.376;6.126;2024-03-08T11:42:19;16.50;73.90
15625;DHT22;7912;51.376;6.126;2024-03-08T11:44:47;16.60;73.90
15625;DHT22;7912;51.376;6.126;2024-03-08T11:47:15;16.60;73.00
15625;DHT22;7912;51.376;6.126;2024-03-08T11:49:43;16.60;72.20
15625;DHT22;7912;51.376;6.126;2024-03-08T11:52:12;16.60;72.80
15625;DHT22;7912;51.376;6.126;2024-03-08T11:55:01;16.60;70.50
15625;DHT22;7912;51.376;6.126;2024-03-08T11:57:28;16.60;70.00
15625;DHT22;7912;51.376;6.126;2024-03-08T11:59:56;16.60;71.80
15625;DHT22;7912;51.376;6.126;2024-03-08T12:02:25;16.70;71.90
15625;DHT22;7912;51.376;6.126;2024-03-08T12:04:59;16.70;71.80
15625;DHT22;7912;51.376;6.126;2024-03-08T12:07:31;16.80;69.60
15625;DHT22;7912;51.376;6.126;2024-03-08T12:10:18;16.80;69.80
15625;DHT22;7912;51.376;6.126;2024-03-08T12:12:50;16.80;69.00
15625;DHT22;7912;51.376;6.126;2024-03-08T12:15:23;16.90;68.60
15625;DHT22;7912;51.376;6.126;2024-03-08T12:17:52;16.90;69.30
15625;DHT22;7912;51.376;6.126;2024-03-08T12:20:23;17.00;69.70
15625;DHT22;7912;51.376;6.126;2024-03-08T12:22:53;17.10;70.30
15625;DHT22;7912;51.376;6.126;2024-03-08T12:25:27;17.20;70.20
15625;DHT22;7912;51.376;6.126;2024-03-08T12:28:10;17.40;69.20
15625;DHT22;7912;51.376;6.126;2024-03-08T12:30:49;17.50;67.40
15625;DHT22;7912;51.376;6.126;2024-03-08T12:33:21;17.60;68.90
15625;DHT22;7912;51.376;6.126;2024-03-08T12:35:53;17.60;68.60
15625;DHT22;7912;51.376;6.126;2024-03-08T12:38:23;17.70;68.30
15625;DHT22;7912;51.376;6.126;2024-03-08T12:40:58;17.80;69.10
15625;DHT22;7912;51.376;6.126;2024-03-08T12:43:26;17.90;67.40
15625;DHT22;7912;51.376;6.126;2024-03-08T12:45:58;18.00;66.40
15625;DHT22;7912;51.376;6.126;2024-03-08T12:48:25;18.10;66.00
15625;DHT22;7912;51.376;6.126;2024-03-08T12:50:54;18.10;65.40
15625;DHT22;7912;51.376;6.126;2024-03-08T12:53:22;18.10;65.30
15625;DHT22;7912;51.376;6.126;2024-03-08T12:55:52;18.20;65.00
15625;DHT22;7912;51.376;6.126;2024-03-08T12:58:19;18.20;64.80
15625;DHT22;7912;51.376;6.126;2024-03-08T13:00:48;18.20;64.60
15625;DHT22;7912;51.376;6.126;2024-03-08T13:03:19;18.20;64.50
15625;DHT22;7912;51.376;6.126;2024-03-08T13:05:47;18.20;64.20
15625;DHT22;7912;51.376;6.126;2024-03-08T13:08:16;18.30;64.60
15625;DHT22;7912;51.376;6.126;2024-03-08T13:10:44;18.30;64.10
15625;DHT22;7912;51.376;6.126;2024-03-08T13:13:12;18.30;64.40
15625;DHT22;7912;51.376;6.126;2024-03-08T13:15:43;18.40;65.00
15625;DHT22;7912;51.376;6.126;2024-03-08T13:18:10;18.40;64.60
15625;DHT22;7912;51.376;6.126;2024-03-08T13:20:38;18.50;64.60
15625;DHT22;7912;51.376;6.126;2024-03-08T13:23:13;18.60;64.00
15625;DHT22;7912;51.376;6.126;2024-03-08T13:25:41;18.70;63.70
15625;DHT22;7912;51.376;6.126;2024-03-08T13:28:09;18.70;63.40
15625;DHT22;7912;51.376;6.126;2024-03-08T13:30:37;18.80;63.60
15625;DHT22;7912;51.376;6.126;2024-03-08T13:33:05;18.80;63.20
15625;DHT22;7912;51.376;6.126;2024-03-08T13:35:34;18.90;63.10
15625;DHT22;7912;51.376;6.126;2024-03-08T13:38:01;18.90;63.40
15625;DHT22;7912;51.376;6.126;2024-03-08T13:40:31;19.00;63.70
15625;DHT22;7912;51.376;6.126;2024-03-08T13:43:00;19.10;63.50
15625;DHT22;7912;51.376;6.126;2024-03-08T13:45:30;19.20;62.60
15625;DHT22;7912;51.376;6.126;2024-03-08T13:47:59;19.40;62.60
15625;DHT22;7912;51.376;6.126;2024-03-08T13:50:26;19.50;61.90
15625;DHT22;7912;51.376;6.126;2024-03-08T13:52:53;19.70;61.10
15625;DHT22;7912;51.376;6.126;2024-03-08T13:55:23;19.80;60.30
15625;DHT22;7912;51.376;6.126;2024-03-08T13:57:54;19.80;59.90
15625;DHT22;7912;51.376;6.126;2024-03-08T14:00:21;19.70;60.00
15625;DHT22;7912;51.376;6.126;2024-03-08T14:02:50;19.70;60.00
15625;DHT22;7912;51.376;6.126;2024-03-08T14:05:17;19.70;60.70
15625;DHT22;7912;51.376;6.126;2024-03-08T14:07:46;19.70;60.40
15625;DHT22;7912;51.376;6.126;2024-03-08T14:10:17;19.80;59.20
15625;DHT22;7912;51.376;6.126;2024-03-08T14:12:49;19.80;59.00
15625;DHT22;7912;51.376;6.126;2024-03-08T14:15:17;19.80;58.50
15625;DHT22;7912;51.376;6.126;2024-03-08T14:17:45;19.70;58.90
15625;DHT22;7912;51.376;6.126;2024-03-08T14:20:19;19.70;58.60
15625;DHT22;7912;51.376;6.126;2024-03-08T14:22:49;19.70;59.10
15625;DHT22;7912;51.376;6.126;2024-03-08T14:25:18;19.70;58.90
15625;DHT22;7912;51.376;6.126;2024-03-08T14:27:46;19.80;59.00
15625;DHT22;7912;51.376;6.126;2024-03-08T14:30:14;19.80;58.70
15625;DHT22;7912;51.376;6.126;2024-03-08T14:32:59;19.80;57.80
15625;DHT22;7912;51.376;6.126;2024-03-08T14:35:26;19.80;57.90
15625;DHT22;7912;51.376;6.126;2024-03-08T14:37:54;19.80;57.30
15625;DHT22;7912;51.376;6.126;2024-03-08T14:40:21;19.80;57.90
15625;DHT22;7912;51.376;6.126;2024-03-08T14:42:53;19.70;57.90
15625;DHT22;7912;51.376;6.126;2024-03-08T14:45:20;19.80;57.50
15625;DHT22;7912;51.376;6.126;2024-03-08T14:47:48;19.70;57.40
15625;DHT22;7912;51.376;6.126;2024-03-08T14:50:20;19.80;56.90
15625;DHT22;7912;51.376;6.126;2024-03-08T14:52:52;19.80;57.50
15625;DHT22;7912;51.376;6.126;2024-03-08T14:55:20;19.80;57.60
15625;DHT22;7912;51.376;6.126;2024-03-08T14:57:49;19.80;57.20
15625;DHT22;7912;51.376;6.126;2024-03-08T15:00:21;19.80;57.60
15625;DHT22;7912;51.376;6.126;2024-03-08T15:03:01;19.90;57.90
15625;DHT22;7912;51.376;6.126;2024-03-08T15:05:36;19.90;57.80
15625;DHT22;7912;51.376;6.126;2024-03-08T15:08:09;19.90;57.00
15625;DHT22;7912;51.376;6.126;2024-03-08T15:10:38;19.80;56.90
15625;DHT22;7912;51.376;6.126;2024-03-08T15:13:09;19.80;56.80
15625;DHT22;7912;51.376;6.126;2024-03-08T15:15:42;19.60;56.20
15625;DHT22;7912;51.376;6.126;2024-03-08T15:18:10;19.60;56.50
15625;DHT22;7912;51.376;6.126;2024-03-08T15:20:39;19.50;56.60
15625;DHT22;7912;51.376;6.126;2024-03-08T15:23:08;19.40;57.20
15625;DHT22;7912;51.376;6.126;2024-03-08T15:25:37;19.40;57.50
15625;DHT22;7912;51.376;6.126;2024-03-08T15:28:05;19.40;57.40
15625;DHT22;7912;51.376;6.126;2024-03-08T15:30:42;19.40;57.50
15625;DHT22;7912;51.376;6.126;2024-03-08T15:33:13;19.40;57.40
15625;DHT22;7912;51.376;6.126;2024-03-08T15:35:42;19.40;57.60
15625;DHT22;7912;51.376;6.126;2024-03-08T15:38:14;19.40;57.80
15625;DHT22;7912;51.376;6.126;2024-03-08T15:40:42;19.40;57.00
15625;DHT22;7912;51.376;6.126;2024-03-08T15:43:09;19.40;57.10
15625;DHT22;7912;51.376;6.126;2024-03-08T15:45:36;19.30;57.20
15625;DHT22;7912;51.376;6.126;2024-03-08T15:48:04;19.30;57.20
15625;DHT22;7912;51.376;6.126;2024-03-08T15:50:32;19.20;57.20
15625;DHT22;7912;51.376;6.126;2024-03-08T15:53:02;19.10;57.10
15625;DHT22;7912;51.376;6.126;2024-03-08T15:55:31;18.90;57.40
15625;DHT22;7912;51.376;6.126;2024-03-08T15:57:59;18.80;57.60
15625;DHT22;7912;51.376;6.126;2024-03-08T16:00:27;18.70;57.70
15625;DHT22;7912;51.376;6.126;2024-03-08T16:03:04;18.50;57.80
15625;DHT22;7912;51.376;6.126;2024-03-08T16:05:39;18.30;57.80
15625;DHT22;7912;51.376;6.126;2024-03-08T16:08:14;18.10;58.10
15625;DHT22;7912;51.376;6.126;2024-03-08T16:10:48;17.90;58.50
15625;DHT22;7912;51.376;6.126;2024-03-08T16:13:25;17.70;58.60
15625;DHT22;7912;51.376;6.126;2024-03-08T16:15:57;17.50;58.90
15625;DHT22;7912;51.376;6.126;2024-03-08T16:18:25;17.40;59.20
15625;DHT22;7912;51.376;6.126;2024-03-08T16:20:53;17.20;59.30